sensor_id;sensor_type;location;lat;lon;timestamp;pressure;altitude;pressure_sealevel;temperature;humidity
71149;BME280;59072;42.144;25.200;2023-03-04T00:00:10;100197.91;;;1.69;100.00
71149;BME280;59072;42.144;25.200;2023-03-04T00:02:36;100220.50;;;1.80;100.00
71149;BME280;59072;42.144;25.200;2023-03-04T00:05:02;100233.75;;;2.05;100.00
71149;BME280;59072;42.144;25.200;2023-03-04T00:07:28;100203.16;;;2.12;100.00
71149;BME280;59072;42.144;25.200;2023-03-04T00:09:53;100218.84;;;2.38;100.00
71149;BME280;59072;42.144;25.200;2023-03-04T00:12:19;100216.75;;;2.50;100.00
71149;BME280;59072;42.144;25.200;2023-03-04T00:14:44;100230.56;;;2.52;100.00
71149;BME280;59072;42.144;25.200;2023-03-04T00:17:10;100226.63;;;2.56;100.00
71149;BME280;59072;42.144;25.200;2023-03-04T00:19:35;100198.59;;;2.30;100.00
71149;BME280;59072;42.144;25.200;2023-03-04T00:22:03;100210.81;;;2.48;100.00
71149;BME280;59072;42.144;25.200;2023-03-04T00:24:31;100181.16;;;2.21;100.00
71149;BME280;59072;42.144;25.200;2023-03-04T00:26:56;100199.75;;;2.28;100.00
71149;BME280;59072;42.144;25.200;2023-03-04T00:29:22;100187.75;;;2.25;100.00
71149;BME280;59072;42.144;25.200;2023-03-04T00:31:48;100187.13;;;2.48;100.00
71149;BME280;59072;42.144;25.200;2023-03-04T00:34:13;100172.97;;;2.57;100.00
71149;BME280;59072;42.144;25.200;2023-03-04T00:36:38;100197.16;;;2.77;100.00
71149;BME280;59072;42.144;25.200;2023-03-04T00:39:04;100181.88;;;2.64;100.00
71149;BME280;59072;42.144;25.200;2023-03-04T00:41:29;100205.88;;;2.53;100.00
71149;BME280;59072;42.144;25.200;2023-03-04T00:43:55;100196.66;;;2.57;100.00
71149;BME280;59072;42.144;25.200;2023-03-04T00:46:20;100190.44;;;2.66;100.00
71149;BME280;59072;42.144;25.200;2023-03-04T00:48:45;100177.91;;;2.44;100.00
71149;BME280;59072;42.144;25.200;2023-03-04T00:51:11;100177.56;;;2.47;100.00
71149;BME280;59072;42.144;25.200;2023-03-04T00:53:36;100188.22;;;2.29;100.00
71149;BME280;59072;42.144;25.200;2023-03-04T00:56:02;100188.44;;;2.44;100.00
71149;BME280;59072;42.144;25.200;2023-03-04T00:58:30;100189.03;;;2.13;100.00
71149;BME280;59072;42.144;25.200;2023-03-04T01:00:55;100193.22;;;1.89;100.00
71149;BME280;59072;42.144;25.200;2023-03-04T01:03:21;100194.13;;;1.64;100.00
71149;BME280;59072;42.144;25.200;2023-03-04T01:05:46;100216.81;;;1.65;100.00
71149;BME280;59072;42.144;25.200;2023-03-04T01:08:14;100196.47;;;0.88;100.00
71149;BME280;59072;42.144;25.200;2023-03-04T01:10:39;100187.13;;;0.94;100.00
71149;BME280;59072;42.144;25.200;2023-03-04T01:13:05;100210.75;;;1.12;100.00
71149;BME280;59072;42.144;25.200;2023-03-04T01:15:30;100210.22;;;1.60;100.00
71149;BME280;59072;42.144;25.200;2023-03-04T01:17:58;100209.38;;;1.60;100.00
71149;BME280;59072;42.144;25.200;2023-03-04T01:20:26;100204.78;;;1.96;100.00
71149;BME280;59072;42.144;25.200;2023-03-04T01:22:52;100207.56;;;1.95;100.00
71149;BME280;59072;42.144;25.200;2023-03-04T01:25:17;100200.69;;;2.10;100.00
71149;BME280;59072;42.144;25.200;2023-03-04T01:27:43;100193.47;;;2.12;100.00
71149;BME280;59072;42.144;25.200;2023-03-04T01:30:09;100197.41;;;2.16;100.00
71149;BME280;59072;42.144;25.200;2023-03-04T01:32:34;100168.47;;;2.16;100.00
71149;BME280;59072;42.144;25.200;2023-03-04T01:35:00;100191.03;;;2.27;100.00
71149;BME280;59072;42.144;25.200;2023-03-04T01:37:25;100173.78;;;2.41;100.00
71149;BME280;59072;42.144;25.200;2023-03-04T01:39:51;100183.19;;;2.52;100.00
71149;BME280;59072;42.144;25.200;2023-03-04T01:42:20;100192.41;;;2.64;100.00
71149;BME280;59072;42.144;25.200;2023-03-04T01:44:47;100172.28;;;2.22;100.00
71149;BME280;59072;42.144;25.200;2023-03-04T01:47:13;100170.91;;;2.01;100.00
71149;BME280;59072;42.144;25.200;2023-03-04T01:49:39;100160.13;;;2.29;100.00
71149;BME280;59072;42.144;25.200;2023-03-04T01:52:05;100184.47;;;2.39;100.00
71149;BME280;59072;42.144;25.200;2023-03-04T01:54:30;100187.13;;;2.39;100.00
71149;BME280;59072;42.144;25.200;2023-03-04T01:56:58;100186.44;;;2.37;100.00
71149;BME280;59072;42.144;25.200;2023-03-04T01:59:28;100182.34;;;2.51;100.00
71149;BME280;59072;42.144;25.200;2023-03-04T02:01:58;100182.53;;;2.58;100.00
71149;BME280;59072;42.144;25.200;2023-03-04T02:04:29;100156.50;;;2.55;100.00
71149;BME280;59072;42.144;25.200;2023-03-04T02:06:56;100158.16;;;2.48;100.00
71149;BME280;59072;42.144;25.200;2023-03-04T02:09:22;100144.16;;;2.39;100.00
71149;BME280;59072;42.144;25.200;2023-03-04T02:11:51;100171.66;;;2.53;100.00
71149;BME280;59072;42.144;25.200;2023-03-04T02:14:17;100173.47;;;2.44;100.00
71149;BME280;59072;42.144;25.200;2023-03-04T02:16:44;100188.25;;;2.45;100.00
71149;BME280;59072;42.144;25.200;2023-03-04T02:19:18;100159.47;;;2.44;100.00
71149;BME280;59072;42.144;25.200;2023-03-04T02:21:47;100176.59;;;2.72;100.00
71149;BME280;59072;42.144;25.200;2023-03-04T02:24:23;100175.94;;;2.70;100.00
71149;BME280;59072;42.144;25.200;2023-03-04T02:26:51;100146.81;;;2.64;100.00
71149;BME280;59072;42.144;25.200;2023-03-04T02:29:17;100154.53;;;2.73;100.00
71149;BME280;59072;42.144;25.200;2023-03-04T02:31:45;100181.22;;;2.62;100.00
71149;BME280;59072;42.144;25.200;2023-03-04T02:34:18;100168.31;;;2.18;100.00
71149;BME280;59072;42.144;25.200;2023-03-04T02:36:44;100163.00;;;1.93;100.00
71149;BME280;59072;42.144;25.200;2023-03-04T02:41:52;100169.50;;;2.32;100.00
71149;BME280;59072;42.144;25.200;2023-03-04T02:44:20;100170.03;;;2.76;100.00
71149;BME280;59072;42.144;25.200;2023-03-04T02:46:46;100162.59;;;2.47;100.00
71149;BME280;59072;42.144;25.200;2023-03-04T02:49:12;100146.59;;;2.16;100.00
71149;BME280;59072;42.144;25.200;2023-03-04T02:51:38;100158.47;;;2.36;100.00
71149;BME280;59072;42.144;25.200;2023-03-04T02:54:14;100141.72;;;2.62;100.00
71149;BME280;59072;42.144;25.200;2023-03-04T02:56:47;100162.72;;;2.13;100.00
71149;BME280;59072;42.144;25.200;2023-03-04T02:59:13;100150.88;;;2.09;100.00
71149;BME280;59072;42.144;25.200;2023-03-04T03:01:38;100156.16;;;2.17;100.00
71149;BME280;59072;42.144;25.200;2023-03-04T03:04:04;100170.00;;;2.27;100.00
71149;BME280;59072;42.144;25.200;2023-03-04T03:06:29;100152.25;;;2.54;100.00
71149;BME280;59072;42.144;25.200;2023-03-04T03:08:57;100161.13;;;2.45;100.00
71149;BME280;59072;42.144;25.200;2023-03-04T03:11:22;100180.53;;;2.44;100.00
71149;BME280;59072;42.144;25.200;2023-03-04T03:13:48;100176.06;;;2.28;100.00
71149;BME280;59072;42.144;25.200;2023-03-04T03:16:13;100162.41;;;2.16;100.00
71149;BME280;59072;42.144;25.200;2023-03-04T03:18:39;100174.53;;;2.00;100.00
71149;BME280;59072;42.144;25.200;2023-03-04T03:21:06;100201.28;;;1.88;100.00
71149;BME280;59072;42.144;25.200;2023-03-04T03:23:32;100196.91;;;2.05;100.00
71149;BME280;59072;42.144;25.200;2023-03-04T03:25:58;100202.53;;;2.26;100.00
71149;BME280;59072;42.144;25.200;2023-03-04T03:28:23;100191.53;;;2.47;100.00
71149;BME280;59072;42.144;25.200;2023-03-04T03:30:49;100190.28;;;2.76;100.00
71149;BME280;59072;42.144;25.200;2023-03-04T03:33:14;100175.94;;;2.54;100.00
71149;BME280;59072;42.144;25.200;2023-03-04T03:35:40;100192.06;;;2.75;100.00
71149;BME280;59072;42.144;25.200;2023-03-04T03:38:05;100180.53;;;2.52;100.00
71149;BME280;59072;42.144;25.200;2023-03-04T03:40:30;100194.38;;;2.70;100.00
71149;BME280;59072;42.144;25.200;2023-03-04T03:42:56;100183.69;;;2.80;100.00
71149;BME280;59072;42.144;25.200;2023-03-04T03:45:21;100181.06;;;2.72;100.00
71149;BME280;59072;42.144;25.200;2023-03-04T03:47:49;100188.59;;;2.91;100.00
71149;BME280;59072;42.144;25.200;2023-03-04T03:50:15;100176.75;;;2.71;100.00
71149;BME280;59072;42.144;25.200;2023-03-04T03:52:40;100193.72;;;2.52;100.00
71149;BME280;59072;42.144;25.200;2023-03-04T03:55:06;100189.72;;;2.31;100.00
71149;BME280;59072;42.144;25.200;2023-03-04T03:57:32;100186.63;;;2.52;100.00
71149;BME280;59072;42.144;25.200;2023-03-04T03:59:57;100181.88;;;2.80;100.00
71149;BME280;59072;42.144;25.200;2023-03-04T04:02:23;100171.97;;;2.41;100.00
71149;BME280;59072;42.144;25.200;2023-03-04T04:04:48;100171.28;;;2.15;100.00
71149;BME280;59072;42.144;25.200;2023-03-04T04:07:14;100190.19;;;2.27;100.00
71149;BME280;59072;42.144;25.200;2023-03-04T04:09:39;100194.97;;;2.23;100.00
71149;BME280;59072;42.144;25.200;2023-03-04T04:12:05;100179.03;;;2.49;100.00
71149;BME280;59072;42.144;25.200;2023-03-04T04:14:32;100163.06;;;2.26;100.00
71149;BME280;59072;42.144;25.200;2023-03-04T04:16:58;100179.97;;;2.07;100.00
71149;BME280;59072;42.144;25.200;2023-03-04T04:19:23;100187.91;;;2.32;100.00
71149;BME280;59072;42.144;25.200;2023-03-04T04:21:49;100184.16;;;2.42;100.00
71149;BME280;59072;42.144;25.200;2023-03-04T04:24:15;100197.16;;;2.52;100.00
71149;BME280;59072;42.144;25.200;2023-03-04T04:26:40;100194.66;;;2.42;100.00
71149;BME280;59072;42.144;25.200;2023-03-04T04:29:06;100184.66;;;2.63;100.00
71149;BME280;59072;42.144;25.200;2023-03-04T04:31:32;100187.44;;;2.61;100.00
71149;BME280;59072;42.144;25.200;2023-03-04T04:33:57;100180.97;;;2.22;100.00
71149;BME280;59072;42.144;25.200;2023-03-04T04:36:23;100186.09;;;2.32;100.00
71149;BME280;59072;42.144;25.200;2023-03-04T04:38:50;100183.84;;;2.46;100.00
71149;BME280;59072;42.144;25.200;2023-03-04T04:41:21;100191.53;;;2.31;100.00
71149;BME280;59072;42.144;25.200;2023-03-04T04:43:47;100203.78;;;1.97;100.00
71149;BME280;59072;42.144;25.200;2023-03-04T04:46:14;100191.22;;;1.75;100.00
71149;BME280;59072;42.144;25.200;2023-03-04T04:48:40;100172.16;;;1.81;100.00
71149;BME280;59072;42.144;25.200;2023-03-04T04:51:07;100192.63;;;2.12;100.00
71149;BME280;59072;42.144;25.200;2023-03-04T04:53:33;100196.56;;;2.08;100.00
71149;BME280;59072;42.144;25.200;2023-03-04T04:56:07;100186.31;;;1.80;100.00
71149;BME280;59072;42.144;25.200;2023-03-04T04:58:33;100202.41;;;1.85;100.00
71149;BME280;59072;42.144;25.200;2023-03-04T05:00:58;100205.31;;;1.66;100.00
71149;BME280;59072;42.144;25.200;2023-03-04T05:03:24;100210.13;;;1.44;100.00
71149;BME280;59072;42.144;25.200;2023-03-04T05:05:49;100208.78;;;1.40;100.00
71149;BME280;59072;42.144;25.200;2023-03-04T05:08:14;100206.56;;;1.53;100.00
71149;BME280;59072;42.144;25.200;2023-03-04T05:10:40;100198.66;;;1.96;100.00
71149;BME280;59072;42.144;25.200;2023-03-04T05:13:05;100195.38;;;1.94;100.00
71149;BME280;59072;42.144;25.200;2023-03-04T05:15:31;100185.34;;;1.89;100.00
71149;BME280;59072;42.144;25.200;2023-03-04T05:17:56;100190.75;;;1.88;100.00
71149;BME280;59072;42.144;25.200;2023-03-04T05:20:22;100201.78;;;1.91;100.00
71149;BME280;59072;42.144;25.200;2023-03-04T05:22:48;100188.00;;;1.97;100.00
71149;BME280;59072;42.144;25.200;2023-03-04T05:25:13;100190.63;;;1.97;100.00
71149;BME280;59072;42.144;25.200;2023-03-04T05:27:38;100188.84;;;2.06;100.00
71149;BME280;59072;42.144;25.200;2023-03-04T05:30:07;100197.28;;;2.34;100.00
71149;BME280;59072;42.144;25.200;2023-03-04T05:32:32;100200.44;;;2.46;100.00
71149;BME280;59072;42.144;25.200;2023-03-04T05:34:58;100190.41;;;2.33;100.00
71149;BME280;59072;42.144;25.200;2023-03-04T05:37:23;100190.06;;;2.36;100.00
71149;BME280;59072;42.144;25.200;2023-03-04T05:39:49;100174.28;;;2.53;100.00
71149;BME280;59072;42.144;25.200;2023-03-04T05:42:14;100182.50;;;2.41;100.00
71149;BME280;59072;42.144;25.200;2023-03-04T05:44:39;100179.72;;;2.59;100.00
71149;BME280;59072;42.144;25.200;2023-03-04T05:47:05;100188.44;;;2.52;100.00
71149;BME280;59072;42.144;25.200;2023-03-04T05:49:30;100188.75;;;2.57;100.00
71149;BME280;59072;42.144;25.200;2023-03-04T05:51:56;100206.19;;;2.41;100.00
71149;BME280;59072;42.144;25.200;2023-03-04T05:54:21;100195.19;;;2.46;100.00
71149;BME280;59072;42.144;25.200;2023-03-04T05:56:46;100186.13;;;2.40;100.00
71149;BME280;59072;42.144;25.200;2023-03-04T05:59:12;100215.75;;;2.67;100.00
71149;BME280;59072;42.144;25.200;2023-03-04T06:01:38;100202.94;;;2.64;100.00
71149;BME280;59072;42.144;25.200;2023-03-04T06:04:03;100222.34;;;2.71;100.00
71149;BME280;59072;42.144;25.200;2023-03-04T06:06:29;100205.06;;;2.77;100.00
71149;BME280;59072;42.144;25.200;2023-03-04T06:08:54;100218.06;;;2.95;100.00
71149;BME280;59072;42.144;25.200;2023-03-04T06:11:20;100227.13;;;3.09;100.00
71149;BME280;59072;42.144;25.200;2023-03-04T06:13:45;100222.03;;;2.99;100.00
71149;BME280;59072;42.144;25.200;2023-03-04T06:16:10;100218.06;;;3.03;100.00
71149;BME280;59072;42.144;25.200;2023-03-04T06:18:36;100200.78;;;3.09;100.00
71149;BME280;59072;42.144;25.200;2023-03-04T06:21:02;100229.44;;;2.95;100.00
71149;BME280;59072;42.144;25.200;2023-03-04T06:23:28;100196.00;;;2.79;100.00
71149;BME280;59072;42.144;25.200;2023-03-04T06:25:56;100240.09;;;3.27;100.00
71149;BME280;59072;42.144;25.200;2023-03-04T06:28:22;100219.84;;;3.27;100.00
71149;BME280;59072;42.144;25.200;2023-03-04T06:30:50;100214.41;;;3.29;100.00
71149;BME280;59072;42.144;25.200;2023-03-04T06:33:16;100210.59;;;3.39;100.00
71149;BME280;59072;42.144;25.200;2023-03-04T06:35:42;100236.31;;;3.37;100.00
71149;BME280;59072;42.144;25.200;2023-03-04T06:38:07;100244.34;;;3.52;100.00
71149;BME280;59072;42.144;25.200;2023-03-04T06:40:32;100228.03;;;3.49;100.00
71149;BME280;59072;42.144;25.200;2023-03-04T06:42:58;100233.81;;;3.44;100.00
71149;BME280;59072;42.144;25.200;2023-03-04T06:45:23;100232.03;;;3.28;100.00
71149;BME280;59072;42.144;25.200;2023-03-04T06:47:51;100219.66;;;3.37;100.00
71149;BME280;59072;42.144;25.200;2023-03-04T06:50:17;100245.13;;;3.69;100.00
71149;BME280;59072;42.144;25.200;2023-03-04T06:52:42;100237.38;;;3.68;100.00
71149;BME280;59072;42.144;25.200;2023-03-04T06:55:08;100259.38;;;3.99;100.00
71149;BME280;59072;42.144;25.200;2023-03-04T06:57:34;100261.03;;;3.92;100.00
71149;BME280;59072;42.144;25.200;2023-03-04T06:59:59;100262.38;;;3.96;100.00
71149;BME280;59072;42.144;25.200;2023-03-04T07:02:27;100258.56;;;4.30;100.00
71149;BME280;59072;42.144;25.200;2023-03-04T07:04:52;100249.75;;;4.15;100.00
71149;BME280;59072;42.144;25.200;2023-03-04T07:07:18;100237.44;;;4.30;100.00
71149;BME280;59072;42.144;25.200;2023-03-04T07:09:43;100257.94;;;4.51;100.00
71149;BME280;59072;42.144;25.200;2023-03-04T07:12:09;100263.81;;;4.61;100.00
71149;BME280;59072;42.144;25.200;2023-03-04T07:14:34;100253.28;;;4.85;100.00
71149;BME280;59072;42.144;25.200;2023-03-04T07:17:00;100249.56;;;4.48;100.00
71149;BME280;59072;42.144;25.200;2023-03-04T07:19:25;100272.16;;;4.73;100.00
71149;BME280;59072;42.144;25.200;2023-03-04T07:21:50;100268.78;;;4.88;100.00
71149;BME280;59072;42.144;25.200;2023-03-04T07:24:16;100253.16;;;4.78;100.00
71149;BME280;59072;42.144;25.200;2023-03-04T07:26:41;100269.47;;;4.81;100.00
71149;BME280;59072;42.144;25.200;2023-03-04T07:29:07;100259.91;;;4.80;100.00
71149;BME280;59072;42.144;25.200;2023-03-04T07:31:33;100252.91;;;4.88;100.00
71149;BME280;59072;42.144;25.200;2023-03-04T07:34:09;100244.28;;;4.94;100.00
71149;BME280;59072;42.144;25.200;2023-03-04T07:36:36;100239.50;;;4.74;100.00
71149;BME280;59072;42.144;25.200;2023-03-04T07:39:02;100260.38;;;4.84;100.00
71149;BME280;59072;42.144;25.200;2023-03-04T07:41:28;100256.13;;;4.98;100.00
71149;BME280;59072;42.144;25.200;2023-03-04T07:43:57;100259.91;;;5.03;100.00
71149;BME280;59072;42.144;25.200;2023-03-04T07:46:23;100256.56;;;5.24;100.00
71149;BME280;59072;42.144;25.200;2023-03-04T07:48:49;100250.94;;;5.28;100.00
71149;BME280;59072;42.144;25.200;2023-03-04T07:51:17;100224.72;;;5.03;100.00
71149;BME280;59072;42.144;25.200;2023-03-04T07:53:47;100234.75;;;5.08;100.00
71149;BME280;59072;42.144;25.200;2023-03-04T07:56:16;100224.97;;;4.93;100.00
71149;BME280;59072;42.144;25.200;2023-03-04T07:58:41;100227.22;;;5.19;100.00
71149;BME280;59072;42.144;25.200;2023-03-04T08:01:22;100255.50;;;5.34;100.00
71149;BME280;59072;42.144;25.200;2023-03-04T08:03:48;100243.28;;;5.33;100.00
71149;BME280;59072;42.144;25.200;2023-03-04T08:06:19;100248.06;;;5.52;100.00
71149;BME280;59072;42.144;25.200;2023-03-04T08:08:46;100243.56;;;5.68;100.00
71149;BME280;59072;42.144;25.200;2023-03-04T08:11:14;100246.13;;;5.76;100.00
71149;BME280;59072;42.144;25.200;2023-03-04T08:13:40;100247.59;;;5.78;100.00
71149;BME280;59072;42.144;25.200;2023-03-04T08:16:06;100235.09;;;5.87;100.00
71149;BME280;59072;42.144;25.200;2023-03-04T08:18:32;100226.41;;;5.93;100.00
71149;BME280;59072;42.144;25.200;2023-03-04T08:20:58;100244.94;;;5.93;100.00
71149;BME280;59072;42.144;25.200;2023-03-04T08:23:24;100250.41;;;6.07;100.00
71149;BME280;59072;42.144;25.200;2023-03-04T08:25:49;100236.72;;;6.18;100.00
71149;BME280;59072;42.144;25.200;2023-03-04T08:28:15;100250.72;;;6.12;100.00
71149;BME280;59072;42.144;25.200;2023-03-04T08:30:41;100243.28;;;6.22;100.00
71149;BME280;59072;42.144;25.200;2023-03-04T08:33:07;100259.03;;;6.45;100.00
71149;BME280;59072;42.144;25.200;2023-03-04T08:35:36;100254.53;;;6.46;100.00
71149;BME280;59072;42.144;25.200;2023-03-04T08:38:02;100254.94;;;6.42;100.00
71149;BME280;59072;42.144;25.200;2023-03-04T08:40:27;100252.41;;;6.34;100.00
71149;BME280;59072;42.144;25.200;2023-03-04T08:42:55;100238.13;;;6.35;100.00
71149;BME280;59072;42.144;25.200;2023-03-04T08:45:20;100258.84;;;6.47;100.00
71149;BME280;59072;42.144;25.200;2023-03-04T08:47:46;100247.78;;;6.58;100.00
71149;BME280;59072;42.144;25.200;2023-03-04T08:50:11;100244.88;;;6.74;100.00
71149;BME280;59072;42.144;25.200;2023-03-04T08:52:37;100230.78;;;6.74;100.00
71149;BME280;59072;42.144;25.200;2023-03-04T08:55:02;100245.78;;;7.10;100.00
71149;BME280;59072;42.144;25.200;2023-03-04T08:57:28;100231.47;;;7.04;100.00
71149;BME280;59072;42.144;25.200;2023-03-04T08:59:53;100235.63;;;7.13;100.00
71149;BME280;59072;42.144;25.200;2023-03-04T09:02:19;100239.13;;;7.20;100.00
71149;BME280;59072;42.144;25.200;2023-03-04T09:04:44;100241.34;;;7.17;100.00
71149;BME280;59072;42.144;25.200;2023-03-04T09:07:09;100234.94;;;7.33;100.00
71149;BME280;59072;42.144;25.200;2023-03-04T09:09:37;100238.31;;;7.48;100.00
71149;BME280;59072;42.144;25.200;2023-03-04T09:12:03;100228.97;;;7.52;100.00
71149;BME280;59072;42.144;25.200;2023-03-04T09:14:28;100240.06;;;7.62;100.00
71149;BME280;59072;42.144;25.200;2023-03-04T09:16:54;100241.91;;;7.69;98.35
71149;BME280;59072;42.144;25.200;2023-03-04T09:19:19;100239.94;;;7.84;99.58
71149;BME280;59072;42.144;25.200;2023-03-04T09:21:47;100226.16;;;8.09;98.78
71149;BME280;59072;42.144;25.200;2023-03-04T09:24:12;100235.78;;;8.10;98.91
71149;BME280;59072;42.144;25.200;2023-03-04T09:26:37;100234.22;;;8.35;98.71
71149;BME280;59072;42.144;25.200;2023-03-04T09:29:03;100212.03;;;8.63;96.61
71149;BME280;59072;42.144;25.200;2023-03-04T09:31:28;100219.22;;;9.16;94.20
71149;BME280;59072;42.144;25.200;2023-03-04T09:33:56;100213.03;;;9.49;94.26
71149;BME280;59072;42.144;25.200;2023-03-04T09:36:22;100215.94;;;9.99;90.70
71149;BME280;59072;42.144;25.200;2023-03-04T09:38:47;100217.09;;;10.23;90.52
71149;BME280;59072;42.144;25.200;2023-03-04T09:41:23;100209.41;;;10.47;89.12
71149;BME280;59072;42.144;25.200;2023-03-04T09:43:51;100206.78;;;10.72;88.76
71149;BME280;59072;42.144;25.200;2023-03-04T09:46:28;100194.97;;;11.11;89.82
71149;BME280;59072;42.144;25.200;2023-03-04T09:48:56;100198.44;;;10.86;88.26
71149;BME280;59072;42.144;25.200;2023-03-04T10:05:20;100181.00;;;13.04;83.65
71149;BME280;59072;42.144;25.200;2023-03-04T10:07:53;100168.88;;;12.90;80.82
71149;BME280;59072;42.144;25.200;2023-03-04T10:10:31;100174.69;;;12.86;80.36
71149;BME280;59072;42.144;25.200;2023-03-04T10:13:03;100167.38;;;12.94;79.58
71149;BME280;59072;42.144;25.200;2023-03-04T10:15:39;100166.31;;;13.65;77.99
71149;BME280;59072;42.144;25.200;2023-03-04T10:23:24;100147.94;;;13.45;78.32
71149;BME280;59072;42.144;25.200;2023-03-04T10:25:50;100148.56;;;13.64;80.14
71149;BME280;59072;42.144;25.200;2023-03-04T10:28:28;100154.78;;;13.53;74.18
71149;BME280;59072;42.144;25.200;2023-03-04T10:33:59;100136.78;;;14.52;73.35
71149;BME280;59072;42.144;25.200;2023-03-04T10:38:59;100141.94;;;14.70;71.00
71149;BME280;59072;42.144;25.200;2023-03-04T10:41:27;100124.66;;;14.03;70.88
71149;BME280;59072;42.144;25.200;2023-03-04T10:46:36;100129.16;;;13.57;76.36
71149;BME280;59072;42.144;25.200;2023-03-04T10:49:02;100116.56;;;13.58;76.83
71149;BME280;59072;42.144;25.200;2023-03-04T10:51:30;100110.81;;;13.78;73.24
71149;BME280;59072;42.144;25.200;2023-03-04T10:54:07;100116.72;;;13.27;75.41
71149;BME280;59072;42.144;25.200;2023-03-04T10:56:41;100112.56;;;13.08;77.82
71149;BME280;59072;42.144;25.200;2023-03-04T10:59:42;100108.47;;;13.05;76.12
71149;BME280;59072;42.144;25.200;2023-03-04T11:02:31;100090.78;;;13.04;79.95
71149;BME280;59072;42.144;25.200;2023-03-04T11:07:49;100085.50;;;13.21;77.16
71149;BME280;59072;42.144;25.200;2023-03-04T11:10:44;100090.16;;;13.38;72.75
71149;BME280;59072;42.144;25.200;2023-03-04T11:20:53;100058.31;;;12.54;75.88
71149;BME280;59072;42.144;25.200;2023-03-04T11:24:03;100071.25;;;13.04;75.71
71149;BME280;59072;42.144;25.200;2023-03-04T11:26:37;100066.53;;;13.46;76.52
71149;BME280;59072;42.144;25.200;2023-03-04T11:31:52;100068.38;;;13.75;72.91
71149;BME280;59072;42.144;25.200;2023-03-04T11:36:56;100037.94;;;13.52;74.25
71149;BME280;59072;42.144;25.200;2023-03-04T11:39:45;100029.28;;;13.21;72.72
71149;BME280;59072;42.144;25.200;2023-03-04T11:44:57;100048.19;;;13.55;72.39
71149;BME280;59072;42.144;25.200;2023-03-04T11:47:47;100050.75;;;14.41;71.06
71149;BME280;59072;42.144;25.200;2023-03-04T11:50:50;100038.91;;;14.71;67.94
71149;BME280;59072;42.144;25.200;2023-03-04T11:53:40;100043.03;;;14.62;69.55
71149;BME280;59072;42.144;25.200;2023-03-04T11:56:31;100047.28;;;14.97;68.01
71149;BME280;59072;42.144;25.200;2023-03-04T11:59:15;100038.63;;;14.90;66.90
71149;BME280;59072;42.144;25.200;2023-03-04T12:07:49;100028.75;;;13.48;69.06
71149;BME280;59072;42.144;25.200;2023-03-04T12:18:37;100022.31;;;13.61;72.57
71149;BME280;59072;42.144;25.200;2023-03-04T12:40:48;99991.91;;;12.15;76.05
71149;BME280;59072;42.144;25.200;2023-03-04T12:54:40;99990.59;;;11.64;79.27
71149;BME280;59072;42.144;25.200;2023-03-04T12:57:18;99981.47;;;11.72;79.12
71149;BME280;59072;42.144;25.200;2023-03-04T12:59:50;99972.84;;;11.70;79.02
71149;BME280;59072;42.144;25.200;2023-03-04T13:10:26;99958.91;;;12.45;78.18
71149;BME280;59072;42.144;25.200;2023-03-04T13:17:52;99952.03;;;12.25;77.21
71149;BME280;59072;42.144;25.200;2023-03-04T13:32:57;99946.56;;;12.56;77.10
71149;BME280;59072;42.144;25.200;2023-03-04T13:38:33;99947.50;;;12.61;73.64
71149;BME280;59072;42.144;25.200;2023-03-04T13:53:55;99918.16;;;13.07;78.13
71149;BME280;59072;42.144;25.200;2023-03-04T13:56:38;99915.81;;;13.11;74.46
71149;BME280;59072;42.144;25.200;2023-03-04T14:01:46;99920.81;;;13.07;74.42
71149;BME280;59072;42.144;25.200;2023-03-04T14:04:16;99908.44;;;12.89;75.17
71149;BME280;59072;42.144;25.200;2023-03-04T14:06:45;99877.81;;;12.97;76.91
71149;BME280;59072;42.144;25.200;2023-03-04T14:09:22;99895.25;;;12.99;78.02
71149;BME280;59072;42.144;25.200;2023-03-04T14:11:49;99906.59;;;12.90;76.06
71149;BME280;59072;42.144;25.200;2023-03-04T14:14:20;99892.13;;;13.48;74.97
71149;BME280;59072;42.144;25.200;2023-03-04T14:16:49;99892.56;;;13.74;72.95
71149;BME280;59072;42.144;25.200;2023-03-04T14:19:31;99891.66;;;13.51;73.17
71149;BME280;59072;42.144;25.200;2023-03-04T14:22:00;99871.59;;;13.08;73.78
71149;BME280;59072;42.144;25.200;2023-03-04T14:24:26;99880.75;;;12.55;77.34
71149;BME280;59072;42.144;25.200;2023-03-04T14:27:12;99877.88;;;12.44;79.32
71149;BME280;59072;42.144;25.200;2023-03-04T14:29:38;99868.84;;;11.98;79.95
71149;BME280;59072;42.144;25.200;2023-03-04T14:32:05;99883.34;;;11.91;80.66
71149;BME280;59072;42.144;25.200;2023-03-04T14:34:33;99870.19;;;11.65;82.01
71149;BME280;59072;42.144;25.200;2023-03-04T14:37:03;99870.88;;;11.73;81.54
71149;BME280;59072;42.144;25.200;2023-03-04T14:39:42;99862.28;;;11.71;81.97
71149;BME280;59072;42.144;25.200;2023-03-04T14:42:11;99865.75;;;11.59;81.94
71149;BME280;59072;42.144;25.200;2023-03-04T14:44:46;99871.47;;;11.63;82.80
71149;BME280;59072;42.144;25.200;2023-03-04T14:47:19;99875.72;;;11.52;82.63
71149;BME280;59072;42.144;25.200;2023-03-04T14:49:47;99869.72;;;11.80;81.40
71149;BME280;59072;42.144;25.200;2023-03-04T14:52:29;99843.69;;;11.52;81.17
71149;BME280;59072;42.144;25.200;2023-03-04T14:57:41;99847.69;;;11.85;82.30
71149;BME280;59072;42.144;25.200;2023-03-04T15:02:49;99843.81;;;11.69;78.40
71149;BME280;59072;42.144;25.200;2023-03-04T15:05:19;99866.25;;;11.80;78.88
71149;BME280;59072;42.144;25.200;2023-03-04T15:07:55;99855.53;;;11.68;82.32